Aviation Digital Data Service (ADDS)

Output produced by METARs form (1109 UTC 13 December 2017)
found at http://www.aviationweather.gov/adds/metars/
 
MNBL 122131Z 1300/1324 36010KT 9999 BKN017 
     FM130600 SCT018 
     BECMG 1312/1317 03008KT 9000 -DZ SCT020 
       
MNMG 131000Z 15006KT 9999 FEW020 21/18 Q1012 A2990 NOSIG
MNMG 131000Z 1312/1412 15006KT 9999 FEW020 
     TEMPO 1315/1320 09012KT 
     BECMG 1321/1403 VRB15G25KT 
       
MNPC 122128Z 1300/1324 36015KT 6000 VCRA BKN016 
     FM130300 33012KT 8000 -DZ/HZ 
     BECMG 1308/1314 34010KT 8000 HZ